createdAt,value
2022-09-15T00:01:42.717Z,94.04
2022-09-15T00:04:11.428Z,94.11
2022-09-15T00:06:39.930Z,94.05
2022-09-15T00:09:09.201Z,94.11
2022-09-15T00:11:39.192Z,94.00
2022-09-15T00:14:10.081Z,94.14
2022-09-15T00:16:39.574Z,94.21
2022-09-15T00:19:08.442Z,94.45
2022-09-15T00:21:40.761Z,94.64
2022-09-15T00:24:11.493Z,94.78
2022-09-15T00:26:40.083Z,94.82
2022-09-15T00:29:12.331Z,94.77
2022-09-15T00:31:41.078Z,94.91
2022-09-15T00:34:14.173Z,94.92
2022-09-15T00:36:42.803Z,94.81
2022-09-15T00:39:12.180Z,94.95
2022-09-15T00:41:41.940Z,94.89
2022-09-15T00:44:36.165Z,94.86
2022-09-15T00:47:23.609Z,95.21
2022-09-15T00:49:58.962Z,95.10
2022-09-15T00:52:35.646Z,95.33
2022-09-15T00:55:08.478Z,95.20
2022-09-15T00:57:41.938Z,95.04
2022-09-15T01:00:13.888Z,95.05
2022-09-15T01:02:46.005Z,95.12
2022-09-15T01:05:18.584Z,95.19
2022-09-15T01:08:04.250Z,95.06
2022-09-15T01:10:36.019Z,94.86
2022-09-15T01:13:06.913Z,94.92
2022-09-15T01:15:47.196Z,95.07
2022-09-15T01:18:22.472Z,95.03
2022-09-15T01:21:18.620Z,94.93
2022-09-15T01:24:10.767Z,95.08
2022-09-15T01:27:24.058Z,95.26
2022-09-15T01:30:14.763Z,95.00
2022-09-15T01:32:58.296Z,94.87
2022-09-15T01:35:35.940Z,95.16
2022-09-15T01:38:09.783Z,94.92
2022-09-15T01:40:46.199Z,95.07
2022-09-15T01:43:18.999Z,95.00
2022-09-15T01:45:51.205Z,94.93
2022-09-15T01:48:23.753Z,95.12
2022-09-15T01:50:56.499Z,95.32
2022-09-15T01:53:26.283Z,95.25
2022-09-15T01:56:00.272Z,95.28
2022-09-15T01:58:29.141Z,95.35
2022-09-15T02:01:06.469Z,95.40
2022-09-15T02:03:45.372Z,95.51
2022-09-15T02:06:22.535Z,95.48
2022-09-15T02:08:58.269Z,95.56
2022-09-15T02:11:28.263Z,95.53
2022-09-15T02:14:11.709Z,95.58
2022-09-15T02:16:47.131Z,95.46
2022-09-15T02:19:23.583Z,95.51
2022-09-15T02:21:58.803Z,95.53
2022-09-15T02:24:34.165Z,95.64
2022-09-15T02:27:05.994Z,95.68
2022-09-15T02:29:37.536Z,95.50
2022-09-15T02:32:10.477Z,95.74
2022-09-15T02:34:43.979Z,95.63
2022-09-15T02:37:14.142Z,95.64
2022-09-15T02:39:49.432Z,95.66
2022-09-15T02:42:25.778Z,95.90
2022-09-15T02:44:54.772Z,95.90
2022-09-15T02:47:26.015Z,96.03
2022-09-15T02:49:54.815Z,96.07
2022-09-15T02:52:23.409Z,96.20
2022-09-15T02:54:52.050Z,96.22
2022-09-15T02:57:21.194Z,96.29
2022-09-15T02:59:59.670Z,96.43
2022-09-15T03:02:30.001Z,96.62
2022-09-15T03:04:58.742Z,96.69
2022-09-15T03:07:27.284Z,96.60
2022-09-15T03:09:56.313Z,96.74
2022-09-15T03:12:24.862Z,96.71
2022-09-15T03:14:53.410Z,97.34
2022-09-15T03:17:21.960Z,96.87
2022-09-15T03:19:52.289Z,97.11
2022-09-15T03:22:20.878Z,97.01
2022-09-15T03:24:50.200Z,97.02
2022-09-15T03:27:19.115Z,97.26
2022-09-15T03:29:48.593Z,97.17
2022-09-15T03:32:17.204Z,97.31
2022-09-15T03:34:45.743Z,97.21
2022-09-15T03:37:16.344Z,97.37
2022-09-15T03:39:45.586Z,97.38
2022-09-15T03:42:17.474Z,97.30
2022-09-15T03:44:46.164Z,97.40
2022-09-15T03:47:14.762Z,97.38
2022-09-15T03:49:43.369Z,97.35
2022-09-15T03:52:12.435Z,97.44
2022-09-15T03:54:42.425Z,97.50
2022-09-15T03:57:11.587Z,97.55
2022-09-15T03:59:40.266Z,97.64
2022-09-15T04:02:08.872Z,97.65
2022-09-15T04:04:37.440Z,97.76
2022-09-15T04:07:07.473Z,97.77
2022-09-15T04:09:37.728Z,97.75
2022-09-15T04:12:08.192Z,97.72
2022-09-15T04:14:36.946Z,97.81
2022-09-15T04:17:05.692Z,98.05
2022-09-15T04:19:34.535Z,98.05
2022-09-15T04:22:03.209Z,98.16
2022-09-15T04:24:32.217Z,98.00
2022-09-15T04:27:00.749Z,98.29
2022-09-15T04:29:30.827Z,97.91
2022-09-15T04:31:59.382Z,98.09
2022-09-15T04:34:27.983Z,98.23
2022-09-15T04:36:56.511Z,98.36
2022-09-15T04:39:25.731Z,98.33
2022-09-15T04:41:54.960Z,98.18
2022-09-15T04:44:23.594Z,98.15
2022-09-15T04:46:53.813Z,98.22
2022-09-15T04:49:22.806Z,98.20
2022-09-15T04:51:53.246Z,98.24
2022-09-15T04:54:22.259Z,98.06
2022-09-15T04:56:50.715Z,98.07
2022-09-15T04:59:20.731Z,98.00
2022-09-15T05:01:49.492Z,98.12
2022-09-15T05:04:19.600Z,97.98
2022-09-15T05:06:48.245Z,97.84
2022-09-15T05:09:16.901Z,97.89
2022-09-15T05:11:45.508Z,97.89
2022-09-15T05:14:14.018Z,97.99
2022-09-15T05:16:42.678Z,98.19
2022-09-15T05:19:12.318Z,97.94
2022-09-15T05:21:42.142Z,98.10
2022-09-15T05:24:10.771Z,98.17
2022-09-15T05:26:39.431Z,98.04
2022-09-15T05:29:08.076Z,98.13
2022-09-15T05:31:36.756Z,97.91
2022-09-15T05:34:06.985Z,98.01
2022-09-15T05:36:35.868Z,98.18
2022-09-15T05:39:05.965Z,98.00
2022-09-15T05:41:34.948Z,98.07
2022-09-15T05:44:03.968Z,97.96
2022-09-15T05:46:32.700Z,97.98
2022-09-15T05:49:01.651Z,98.04
2022-09-15T05:51:30.816Z,98.15
2022-09-15T05:53:59.389Z,98.25
2022-09-15T05:56:29.537Z,98.27
2022-09-15T05:58:58.178Z,98.19
2022-09-15T06:01:28.506Z,98.11
2022-09-15T06:03:58.557Z,98.21
2022-09-15T06:06:28.278Z,98.10
2022-09-15T06:08:59.282Z,98.07
2022-09-15T06:11:31.718Z,98.19
2022-09-15T06:14:01.212Z,98.13
2022-09-15T06:16:34.012Z,98.18
2022-09-15T06:19:03.602Z,98.14
2022-09-15T06:21:32.826Z,98.00
2022-09-15T06:24:03.506Z,97.94
2022-09-15T06:26:33.676Z,98.01
2022-09-15T06:29:05.517Z,98.00
2022-09-15T06:31:35.621Z,97.93
2022-09-15T06:34:10.363Z,97.88
2022-09-15T06:36:41.707Z,97.94
2022-09-15T06:39:10.463Z,98.01
2022-09-15T06:42:01.391Z,97.87
2022-09-15T06:44:30.563Z,98.06
2022-09-15T06:46:59.118Z,97.99
2022-09-15T06:49:27.728Z,97.84
2022-09-15T06:51:57.064Z,97.94
2022-09-15T06:54:25.640Z,97.99
2022-09-15T06:56:55.673Z,98.04
2022-09-15T06:59:24.855Z,98.00
2022-09-15T07:01:54.896Z,98.02
2022-09-15T07:04:24.111Z,98.10
2022-09-15T07:06:52.625Z,98.14
2022-09-15T07:09:21.287Z,98.01
2022-09-15T07:11:49.813Z,97.91
2022-09-15T07:14:20.182Z,97.89
2022-09-15T07:16:48.697Z,97.64
2022-09-15T07:19:17.498Z,97.71
2022-09-15T07:21:46.481Z,97.70
2022-09-15T07:24:15.090Z,97.70
2022-09-15T07:26:43.632Z,97.54
2022-09-15T07:29:12.438Z,97.30
2022-09-15T07:31:42.562Z,97.33
2022-09-15T07:34:11.283Z,97.27
2022-09-15T07:36:39.914Z,97.01
2022-09-15T07:39:08.633Z,96.84
2022-09-15T07:41:37.307Z,96.67
2022-09-15T07:44:08.528Z,96.46
2022-09-15T07:46:37.205Z,96.12
2022-09-15T07:49:08.568Z,96.04
2022-09-15T07:51:37.223Z,96.15
2022-09-15T07:54:05.940Z,95.73
2022-09-15T07:56:34.587Z,95.48
2022-09-15T07:59:03.048Z,95.34
2022-09-15T08:01:31.794Z,94.70
2022-09-15T08:04:00.608Z,94.15
2022-09-15T08:06:30.796Z,93.51
2022-09-15T08:09:00.990Z,93.03
2022-09-15T08:11:30.872Z,92.38
2022-09-15T08:14:03.133Z,91.83
2022-09-15T08:16:31.882Z,91.66
2022-09-15T08:19:00.524Z,91.25
2022-09-15T08:21:30.993Z,89.76
2022-09-15T08:24:01.479Z,88.73
2022-09-15T08:26:31.630Z,87.66
2022-09-15T08:29:00.862Z,86.43
2022-09-15T08:31:29.941Z,86.30
2022-09-15T08:33:58.537Z,85.99
2022-09-15T08:36:28.426Z,85.61
2022-09-15T08:38:58.700Z,85.56
2022-09-15T08:41:31.084Z,85.82
2022-09-15T08:44:08.769Z,85.57
2022-09-15T08:46:44.208Z,85.42
2022-09-15T08:49:30.530Z,85.57
2022-09-15T08:52:12.538Z,84.96
2022-09-15T08:54:42.714Z,84.20
2022-09-15T08:57:18.680Z,83.57
2022-09-15T08:59:47.422Z,83.45
2022-09-15T09:02:45.524Z,83.12
2022-09-15T09:05:37.163Z,82.71
2022-09-15T09:08:29.827Z,82.39
2022-09-15T09:11:05.414Z,81.99
2022-09-15T09:13:42.026Z,82.28
2022-09-15T09:16:31.791Z,82.58
2022-09-15T09:19:13.722Z,82.62
2022-09-15T09:21:48.012Z,82.85
2022-09-15T09:24:19.277Z,82.94
2022-09-15T09:26:54.574Z,82.80
2022-09-15T09:29:32.550Z,82.84
2022-09-15T09:32:03.191Z,82.87
2022-09-15T09:34:39.928Z,82.91
2022-09-15T09:37:12.980Z,82.85
2022-09-15T09:39:42.610Z,82.77
2022-09-15T09:42:18.508Z,82.59
2022-09-15T09:44:49.596Z,82.64
2022-09-15T09:47:18.369Z,82.41
2022-09-15T09:49:49.804Z,82.42
2022-09-15T09:52:35.362Z,82.12
2022-09-15T09:55:06.003Z,82.43
2022-09-15T09:57:40.689Z,82.04
2022-09-15T10:00:32.563Z,81.08
2022-09-15T10:03:12.552Z,80.28
2022-09-15T10:05:42.082Z,79.40
2022-09-15T10:08:19.482Z,78.67
2022-09-15T10:10:56.103Z,78.25
2022-09-15T10:13:26.374Z,77.55
2022-09-15T10:16:00.236Z,75.89
2022-09-15T10:18:33.558Z,74.75
2022-09-15T10:21:04.185Z,74.08
2022-09-15T10:23:34.966Z,73.63
2022-09-15T10:26:22.629Z,73.17
2022-09-15T10:29:13.215Z,72.98
2022-09-15T10:31:44.416Z,73.25
2022-09-15T10:34:30.496Z,72.39
2022-09-15T10:37:18.270Z,71.51
2022-09-15T10:39:54.450Z,71.40
2022-09-15T10:42:37.879Z,71.79
2022-09-15T10:45:19.640Z,71.53
2022-09-15T10:48:07.649Z,71.81
2022-09-15T10:50:49.278Z,72.27
2022-09-15T10:53:27.137Z,72.04
2022-09-15T10:56:05.213Z,71.57
2022-09-15T10:58:50.530Z,71.27
2022-09-15T11:01:37.712Z,71.52
2022-09-15T11:04:32.195Z,71.47
2022-09-15T11:07:09.654Z,71.24
2022-09-15T11:09:44.645Z,71.06
2022-09-15T11:12:28.941Z,70.85
2022-09-15T11:15:12.710Z,70.24
2022-09-15T11:17:55.863Z,70.13
2022-09-15T11:20:54.241Z,69.93
2022-09-15T11:23:28.549Z,69.67
2022-09-15T11:26:06.226Z,69.88
2022-09-15T11:28:40.614Z,69.65
2022-09-15T11:31:16.952Z,70.10
2022-09-15T11:33:53.530Z,70.03
2022-09-15T11:36:31.819Z,69.48
2022-09-15T11:39:07.346Z,68.87
2022-09-15T11:41:41.724Z,68.51
2022-09-15T11:44:20.906Z,68.37
2022-09-15T11:47:04.402Z,67.88
2022-09-15T11:49:42.518Z,67.62
2022-09-15T11:52:27.117Z,67.39
2022-09-15T11:55:02.467Z,67.16
2022-09-15T11:57:37.993Z,67.07
2022-09-15T12:00:13.847Z,67.52
2022-09-15T12:02:51.918Z,67.76
2022-09-15T12:05:25.953Z,68.13
2022-09-15T12:08:00.953Z,68.01
2022-09-15T12:10:35.269Z,67.83
2022-09-15T12:13:05.160Z,67.92
2022-09-15T12:15:34.302Z,67.61
2022-09-15T12:18:37.141Z,67.22
2022-09-15T12:21:10.393Z,66.07
2022-09-15T12:23:43.381Z,64.80
2022-09-15T12:26:19.360Z,64.33
2022-09-15T12:28:59.291Z,63.83
2022-09-15T12:31:31.396Z,63.70
2022-09-15T12:34:04.864Z,63.30
2022-09-15T12:36:43.490Z,63.80
2022-09-15T12:39:29.765Z,63.57
2022-09-15T12:42:23.427Z,63.83
2022-09-15T12:44:56.280Z,64.49
2022-09-15T12:47:32.201Z,64.75
2022-09-15T12:50:06.934Z,64.93
2022-09-15T12:52:46.231Z,65.23
2022-09-15T12:55:22.800Z,65.11
2022-09-15T12:57:56.029Z,64.70
2022-09-15T13:00:37.967Z,65.19
2022-09-15T13:03:29.231Z,65.53
2022-09-15T13:06:16.762Z,65.71
2022-09-15T13:08:56.675Z,65.90
2022-09-15T13:11:37.675Z,66.32
2022-09-15T13:14:19.180Z,66.81
2022-09-15T13:16:54.417Z,66.96
2022-09-15T13:19:28.262Z,67.01
2022-09-15T13:22:07.930Z,66.82
2022-09-15T13:24:48.021Z,67.07
2022-09-15T13:27:23.722Z,67.40
2022-09-15T13:29:58.701Z,67.82
2022-09-15T13:32:43.865Z,68.15
2022-09-15T13:35:38.746Z,68.64
2022-09-15T13:38:33.394Z,68.71
2022-09-15T13:41:27.794Z,68.91
2022-09-15T13:44:25.685Z,68.73
2022-09-15T13:47:14.722Z,68.84
2022-09-15T13:49:51.809Z,68.45
2022-09-15T13:52:34.483Z,68.38
2022-09-15T13:55:11.079Z,68.29
2022-09-15T14:00:34.067Z,68.67
2022-09-15T14:03:12.397Z,69.00
2022-09-15T14:05:41.569Z,69.38
2022-09-15T14:08:23.603Z,69.80
2022-09-15T14:10:56.075Z,70.14
2022-09-15T14:13:28.591Z,70.54
2022-09-15T14:16:03.823Z,70.82
2022-09-15T14:18:44.207Z,71.11
2022-09-15T14:21:18.975Z,71.63
2022-09-15T14:23:49.209Z,71.90
2022-09-15T14:26:21.090Z,72.23
2022-09-15T14:28:51.508Z,72.68
2022-09-15T14:31:34.908Z,72.70
2022-09-15T14:34:08.542Z,72.98
2022-09-15T14:36:39.839Z,73.08
2022-09-15T14:39:22.111Z,73.52
2022-09-15T14:41:52.898Z,73.63
2022-09-15T14:47:21.612Z,74.70
2022-09-15T14:50:08.042Z,75.12
2022-09-15T14:52:41.022Z,75.50
2022-09-15T14:55:16.126Z,75.52
2022-09-15T14:57:52.857Z,75.98
2022-09-15T15:00:25.630Z,76.00
2022-09-15T15:03:03.926Z,76.10
2022-09-15T15:05:41.006Z,76.09
2022-09-15T15:08:15.990Z,76.02
2022-09-15T15:10:44.899Z,76.09
2022-09-15T15:13:17.605Z,75.72
2022-09-15T15:15:47.397Z,75.85
2022-09-15T15:18:41.806Z,75.82
2022-09-15T15:21:36.216Z,75.90
2022-09-15T15:24:22.248Z,75.58
2022-09-15T15:26:52.071Z,75.53
2022-09-15T15:29:39.869Z,75.32
2022-09-15T15:32:13.960Z,75.51
2022-09-15T15:34:50.849Z,75.39
2022-09-15T15:37:28.990Z,75.53
2022-09-15T15:40:01.300Z,75.26
2022-09-15T15:42:30.905Z,75.31
2022-09-15T15:45:00.458Z,75.49
2022-09-15T15:47:32.406Z,75.24
2022-09-15T15:50:14.382Z,75.39
2022-09-15T15:52:45.199Z,75.53
2022-09-15T15:55:20.520Z,75.66
2022-09-15T15:57:51.642Z,75.96
2022-09-15T16:00:24.073Z,75.92
2022-09-15T16:02:53.716Z,75.80
2022-09-15T16:05:26.742Z,76.00
2022-09-15T16:07:57.472Z,76.29
2022-09-15T16:10:32.118Z,76.43
2022-09-15T16:13:01.792Z,76.36
2022-09-15T16:15:30.573Z,76.52
2022-09-15T16:17:59.190Z,77.01
2022-09-15T16:20:28.683Z,77.28
2022-09-15T16:22:57.083Z,77.79
2022-09-15T16:25:35.904Z,78.18
2022-09-15T16:28:05.493Z,78.44
2022-09-15T16:30:34.148Z,78.82
2022-09-15T16:33:03.046Z,78.96
2022-09-15T16:35:39.510Z,79.38
2022-09-15T16:38:08.790Z,79.26
2022-09-15T16:40:38.938Z,78.86
2022-09-15T16:43:14.313Z,78.54
2022-09-15T16:45:42.939Z,78.19
2022-09-15T16:48:12.148Z,78.05
2022-09-15T16:50:50.327Z,78.11
2022-09-15T16:53:22.384Z,77.88
2022-09-15T16:55:54.207Z,77.91
2022-09-15T16:58:23.926Z,77.97
2022-09-15T17:00:53.142Z,77.89
2022-09-15T17:03:24.477Z,78.16
2022-09-15T17:05:54.670Z,79.18
2022-09-15T17:08:25.984Z,79.55
2022-09-15T17:10:57.795Z,79.49
2022-09-15T17:13:30.319Z,79.52
2022-09-15T17:16:00.296Z,79.90
2022-09-15T17:18:29.540Z,80.23
2022-09-15T17:20:58.781Z,80.24
2022-09-15T17:23:29.314Z,80.54
2022-09-15T17:26:01.398Z,80.53
2022-09-15T17:28:32.191Z,80.80
2022-09-15T17:31:02.170Z,80.97
2022-09-15T17:33:32.671Z,81.37
2022-09-15T17:36:01.736Z,81.46
2022-09-15T17:38:31.726Z,81.73
2022-09-15T17:41:01.829Z,81.61
2022-09-15T17:43:32.729Z,82.05
2022-09-15T17:46:01.729Z,82.01
2022-09-15T17:48:30.420Z,82.31
2022-09-15T17:51:02.019Z,82.40
2022-09-15T17:53:31.264Z,82.54
2022-09-15T17:56:01.299Z,82.60
2022-09-15T17:58:32.485Z,82.73
2022-09-15T18:01:01.486Z,82.75
2022-09-15T18:03:35.223Z,82.62
2022-09-15T18:06:06.577Z,82.52
2022-09-15T18:08:37.247Z,82.32
2022-09-15T18:11:08.628Z,81.89
2022-09-15T18:13:38.794Z,81.42
2022-09-15T18:16:12.934Z,80.98
2022-09-15T18:18:43.379Z,80.32
2022-09-15T18:21:26.293Z,79.14
2022-09-15T18:23:55.665Z,78.26
2022-09-15T18:26:26.754Z,77.89
2022-09-15T18:28:57.349Z,77.98
2022-09-15T18:31:26.710Z,77.93
2022-09-15T18:33:55.606Z,77.39
2022-09-15T18:36:24.464Z,77.06
2022-09-15T18:38:53.244Z,76.91
2022-09-15T18:41:22.096Z,76.93
2022-09-15T18:43:52.215Z,76.85
2022-09-15T18:46:21.328Z,76.76
2022-09-15T18:48:50.286Z,76.67
2022-09-15T18:51:24.100Z,76.46
2022-09-15T18:53:58.739Z,75.80
2022-09-15T18:56:27.379Z,75.39
2022-09-15T18:58:57.978Z,75.07
2022-09-15T19:01:27.617Z,74.63
2022-09-15T19:03:56.668Z,74.94
2022-09-15T19:06:25.451Z,74.95
2022-09-15T19:08:54.431Z,75.10
2022-09-15T19:11:23.042Z,75.16
2022-09-15T19:13:54.076Z,75.18
2022-09-15T19:16:46.796Z,75.44
2022-09-15T19:19:15.117Z,75.53
2022-09-15T19:21:46.049Z,75.86
2022-09-15T19:24:16.391Z,76.11
2022-09-15T19:26:47.088Z,76.39
2022-09-15T19:29:16.733Z,76.46
2022-09-15T19:31:46.891Z,76.59
2022-09-15T19:34:15.756Z,76.86
2022-09-15T19:36:44.514Z,76.93
2022-09-15T19:39:15.055Z,77.21
2022-09-15T19:41:44.567Z,77.35
2022-09-15T19:44:16.276Z,77.49
2022-09-15T19:46:47.113Z,77.54
2022-09-15T19:49:15.992Z,77.81
2022-09-15T19:51:46.059Z,77.73
2022-09-15T19:54:14.980Z,78.05
2022-09-15T19:56:43.783Z,77.92
2022-09-15T19:59:12.534Z,78.28
2022-09-15T20:01:41.210Z,78.30
2022-09-15T20:06:51.018Z,78.33
2022-09-15T20:09:19.690Z,78.75
2022-09-15T20:11:48.479Z,78.37
2022-09-15T20:14:16.948Z,78.40
2022-09-15T20:16:46.077Z,78.50
2022-09-15T20:19:16.256Z,78.43
2022-09-15T20:21:51.646Z,78.35
2022-09-15T20:24:21.472Z,78.56
2022-09-15T20:26:51.054Z,78.92
2022-09-15T20:29:19.642Z,78.94
2022-09-15T20:31:48.631Z,79.02
2022-09-15T20:34:19.226Z,79.14
2022-09-15T20:36:47.946Z,79.25
2022-09-15T20:39:19.128Z,79.32
2022-09-15T20:41:47.693Z,79.56
2022-09-15T20:44:16.440Z,79.62
2022-09-15T20:46:45.144Z,79.60
2022-09-15T20:49:13.773Z,79.87
2022-09-15T20:51:43.770Z,79.98
2022-09-15T20:54:12.463Z,80.17
2022-09-15T20:56:41.192Z,80.24
2022-09-15T20:59:10.885Z,80.50
2022-09-15T21:01:40.215Z,80.87
2022-09-15T21:04:10.279Z,80.86
2022-09-15T21:06:39.328Z,81.05
2022-09-15T21:09:09.572Z,81.36
2022-09-15T21:11:39.996Z,81.37
2022-09-15T21:14:08.662Z,81.57
2022-09-15T21:16:37.232Z,81.83
2022-09-15T21:19:08.035Z,82.10
2022-09-15T21:21:37.372Z,82.38
2022-09-15T21:24:09.839Z,82.47
2022-09-15T21:27:01.317Z,82.51
2022-09-15T21:29:31.547Z,82.95
2022-09-15T21:32:00.155Z,82.80
2022-09-15T21:34:29.161Z,82.84
2022-09-15T21:36:58.099Z,82.75
2022-09-15T21:39:28.389Z,82.56
2022-09-15T21:41:57.074Z,82.42
2022-09-15T21:44:25.629Z,82.68
2022-09-15T21:46:55.004Z,82.71
2022-09-15T21:49:25.063Z,83.05
2022-09-15T21:51:53.864Z,83.12
2022-09-15T21:54:22.975Z,83.25
2022-09-15T21:56:53.168Z,83.21
2022-09-15T21:59:21.829Z,83.11
2022-09-15T22:01:50.343Z,83.19
2022-09-15T22:04:19.159Z,83.31
2022-09-15T22:06:50.348Z,83.29
2022-09-15T22:09:21.986Z,83.28
2022-09-15T22:11:50.624Z,83.39
2022-09-15T22:14:21.807Z,83.11
2022-09-15T22:16:50.967Z,83.29
2022-09-15T22:19:19.699Z,82.96
2022-09-15T22:21:48.369Z,82.70
2022-09-15T22:24:16.863Z,82.31
2022-09-15T22:26:45.513Z,82.33
2022-09-15T22:29:14.133Z,82.48
2022-09-15T22:31:44.236Z,82.37
2022-09-15T22:34:12.975Z,82.35
2022-09-15T22:36:41.706Z,82.09
2022-09-15T22:39:13.039Z,82.03
2022-09-15T22:41:41.786Z,82.31
2022-09-15T22:44:19.998Z,82.27
2022-09-15T22:46:51.562Z,82.39
2022-09-15T22:49:20.118Z,82.27
2022-09-15T22:51:48.831Z,82.32
2022-09-15T22:54:17.736Z,82.38
2022-09-15T22:56:47.712Z,82.50
2022-09-15T22:59:17.660Z,82.61
2022-09-15T23:01:46.436Z,82.63
2022-09-15T23:04:16.995Z,82.55
2022-09-15T23:06:45.830Z,82.59
2022-09-15T23:09:16.221Z,82.31
2022-09-15T23:11:45.113Z,82.16
2022-09-15T23:14:16.373Z,82.06
2022-09-15T23:16:45.288Z,81.77
2022-09-15T23:19:14.884Z,81.82
2022-09-15T23:21:44.679Z,81.82
2022-09-15T23:24:14.116Z,82.00
2022-09-15T23:26:42.731Z,81.99
2022-09-15T23:29:11.548Z,82.19
2022-09-15T23:31:40.208Z,82.32
2022-09-15T23:34:08.811Z,82.44
2022-09-15T23:36:37.691Z,82.26
2022-09-15T23:39:07.756Z,82.29
2022-09-15T23:41:39.387Z,81.98
2022-09-15T23:44:07.997Z,81.59
2022-09-15T23:46:36.748Z,81.00
2022-09-15T23:49:05.850Z,80.63
2022-09-15T23:51:34.821Z,80.11
2022-09-15T23:54:04.952Z,79.86
2022-09-15T23:56:35.178Z,79.95
2022-09-15T23:59:03.967Z,79.79
